Time;durP1;ratioP1;P1;durP2;ratioP2;P2;SDS_P1;SDS_P2;PMS_P1;PMS_P2;Temp;Humidity;BMP_temperature;BMP_pressure;BME280_temperature;BME280_humidity;BME280_pressure;Samples;Min_cycle;Max_cycle;Signal;HPM_P1;HPM_P2
2021/12/15 00:00:45;;;;;;;53.70;26.48;;;;;;;9.18;100.00;102915.97;5100032;28;20467;-76
2021/12/15 00:03:10;;;;;;;53.55;25.23;;;;;;;9.18;100.00;102912.44;5100710;28;20056;-79
2021/12/15 00:05:36;;;;;;;51.95;25.30;;;;;;;9.22;100.00;102914.19;5101161;28;20027;-81
2021/12/15 00:08:04;;;;;;;49.90;24.67;;;;;;;9.21;100.00;102907.16;5100302;28;20027;-81
2021/12/15 00:10:30;;;;;;;50.97;25.13;;;;;;;9.23;100.00;102907.13;5098543;28;20475;-82
2021/12/15 00:12:57;;;;;;;46.92;24.38;;;;;;;9.22;100.00;102916.84;5097938;28;20039;-82
2021/12/15 00:15:23;;;;;;;54.20;24.10;;;;;;;9.21;100.00;102906.25;5098049;28;20027;-82
2021/12/15 00:17:50;;;;;;;50.95;23.85;;;;;;;9.21;100.00;102903.59;5095864;28;20468;-81
2021/12/15 00:20:17;;;;;;;50.85;24.02;;;;;;;9.19;100.00;102895.69;5095837;28;20020;-81
2021/12/15 00:22:43;;;;;;;47.17;24.17;;;;;;;9.20;100.00;102907.16;5095733;28;20187;-83
2021/12/15 00:25:10;;;;;;;52.00;25.23;;;;;;;9.18;100.00;102908.03;5096129;28;20051;-82
2021/12/15 00:27:36;;;;;;;51.67;24.15;;;;;;;9.17;100.00;102910.69;5095552;28;20029;-83
2021/12/15 00:30:03;;;;;;;49.67;23.98;;;;;;;9.20;100.00;102899.22;5095702;28;20047;-81
2021/12/15 00:32:29;;;;;;;52.47;25.85;;;;;;;9.16;100.00;102907.16;5093622;28;20403;-82
2021/12/15 00:34:54;;;;;;;54.92;24.48;;;;;;;9.14;100.00;102901.03;5094879;28;20031;-82
2021/12/15 00:37:21;;;;;;;44.83;23.95;;;;;;;9.15;100.00;102908.03;5094943;28;20036;-83
2021/12/15 00:39:47;;;;;;;51.53;24.40;;;;;;;9.15;100.00;102897.47;5094999;28;20379;-83
2021/12/15 00:42:13;;;;;;;46.05;23.52;;;;;;;9.17;100.00;102900.13;5094609;28;20024;-82
2021/12/15 00:44:39;;;;;;;50.10;24.25;;;;;;;9.17;100.00;102902.78;5094374;28;20074;-82
2021/12/15 00:47:05;;;;;;;49.45;24.00;;;;;;;9.14;100.00;102898.38;5094677;28;20024;-83
2021/12/15 00:49:32;;;;;;;52.00;23.58;;;;;;;9.15;100.00;102905.41;5094461;28;20063;-82
2021/12/15 00:51:57;;;;;;;49.53;23.17;;;;;;;9.16;100.00;102912.44;5094335;28;20035;-83
2021/12/15 00:54:26;;;;;;;51.60;24.15;;;;;;;9.13;100.00;102904.53;5093832;28;20036;-82
2021/12/15 00:56:53;;;;;;;45.42;22.88;;;;;;;9.13;100.00;102903.66;5094232;28;20039;-82
2021/12/15 00:59:19;;;;;;;48.70;23.25;;;;;;;9.15;100.00;102908.03;5094852;28;20043;-83
2021/12/15 01:01:45;;;;;;;49.08;23.88;;;;;;;9.14;100.00;102905.41;5094137;28;20059;-82
2021/12/15 01:04:13;;;;;;;49.95;22.48;;;;;;;9.14;100.00;102901.03;5093301;28;20074;-83
2021/12/15 01:06:41;;;;;;;47.70;22.45;;;;;;;9.12;100.00;102902.78;5094405;28;20053;-81
2021/12/15 01:09:13;;;;;;;47.47;23.17;;;;;;;9.16;100.00;102901.88;5094508;28;20031;-83
2021/12/15 01:22:18;;;;;;;47.20;23.38;;;;;;;9.17;100.00;102908.06;5094208;28;20028;-83
2021/12/15 01:24:43;;;;;;;44.85;22.75;;;;;;;9.17;100.00;102902.78;5093471;28;20081;-83
2021/12/15 01:27:09;;;;;;;46.63;23.50;;;;;;;9.17;100.00;102908.94;5093954;28;20024;-83
2021/12/15 01:29:35;;;;;;;48.45;23.63;;;;;;;9.16;100.00;102901.88;5093948;28;20051;-81
2021/12/15 01:32:00;;;;;;;46.47;22.13;;;;;;;9.15;100.00;102901.88;5093204;28;20118;-83
2021/12/15 01:34:26;;;;;;;50.65;22.17;;;;;;;9.14;100.00;102911.59;5093660;28;20051;-83
2021/12/15 01:36:52;;;;;;;50.03;23.40;;;;;;;9.15;100.00;102904.53;5093173;28;20055;-84
2021/12/15 01:39:17;;;;;;;45.17;23.05;;;;;;;9.14;100.00;102905.41;5093846;28;20028;-83
2021/12/15 01:41:44;;;;;;;42.67;21.77;;;;;;;9.16;100.00;102914.22;5093697;28;20056;-81
2021/12/15 01:46:56;;;;;;;43.42;21.35;;;;;;;9.13;100.00;102915.13;5093259;28;20475;-83
2021/12/15 01:49:39;;;;;;;44.05;21.00;;;;;;;9.13;100.00;102919.50;5094066;28;20387;-83
2021/12/15 01:52:08;;;;;;;47.58;23.02;;;;;;;9.14;100.00;102915.97;5093154;28;20056;-83
2021/12/15 01:54:35;;;;;;;45.55;21.65;;;;;;;9.12;100.00;102925.72;5093042;28;20032;-83
2021/12/15 01:57:02;;;;;;;46.28;22.35;;;;;;;9.13;100.00;102930.97;5092631;28;20024;-83
2021/12/15 01:59:29;;;;;;;45.95;22.00;;;;;;;9.13;100.00;102933.63;5092955;28;20035;-83
2021/12/15 02:01:58;;;;;;;41.50;21.55;;;;;;;9.13;100.00;102923.06;5093592;28;20056;-83
2021/12/15 02:04:24;;;;;;;41.70;21.33;;;;;;;9.16;100.00;102917.72;5093047;28;20031;-82
2021/12/15 02:06:49;;;;;;;44.50;21.27;;;;;;;9.14;100.00;102935.38;5092560;28;20024;-84
2021/12/15 02:09:31;;;;;;;42.85;21.25;;;;;;;9.15;100.00;102937.13;5093071;28;20467;-83
2021/12/15 02:11:57;;;;;;;42.55;20.52;;;;;;;9.14;100.00;102937.13;5092971;28;20821;-82
2021/12/15 02:14:23;;;;;;;42.30;20.00;;;;;;;9.12;100.00;102946.84;5093088;28;20028;-81
2021/12/15 02:16:48;;;;;;;48.40;20.35;;;;;;;9.12;100.00;102939.78;5092684;28;20039;-82
2021/12/15 02:19:14;;;;;;;44.53;20.88;;;;;;;9.09;100.00;102937.19;5092510;28;20090;-83
2021/12/15 02:21:39;;;;;;;40.75;19.75;;;;;;;9.10;100.00;102938.03;5093045;28;20024;-83
2021/12/15 02:24:05;;;;;;;41.35;21.27;;;;;;;9.11;100.00;102947.72;5093148;28;20024;-83
2021/12/15 02:26:35;;;;;;;42.35;20.92;;;;;;;9.13;100.00;102943.28;5092512;28;20028;-83
2021/12/15 02:29:05;;;;;;;41.40;19.77;;;;;;;9.14;100.00;102940.66;5092519;28;20024;-80
2021/12/15 02:31:52;;;;;;;40.13;19.50;;;;;;;9.13;100.00;102940.66;5093054;28;20035;-83
2021/12/15 02:39:37;;;;;;;39.75;19.90;;;;;;;9.14;100.00;102945.97;5114048;28;20043;-82
2021/12/15 02:42:03;;;;;;;41.20;20.08;;;;;;;9.14;100.00;102947.69;5108412;28;20024;-81
2021/12/15 02:44:28;;;;;;;38.25;19.10;;;;;;;9.14;100.00;102943.31;5097253;28;20024;-82
2021/12/15 02:46:54;;;;;;;36.25;19.10;;;;;;;9.14;100.00;102939.78;5096461;28;20547;-81
2021/12/15 02:49:24;;;;;;;42.08;19.92;;;;;;;9.16;100.00;102938.00;5096760;28;20040;-82
2021/12/15 02:51:51;;;;;;;41.40;19.00;;;;;;;9.17;100.00;102939.78;5095914;28;20024;-82
2021/12/15 02:54:19;;;;;;;41.65;20.60;;;;;;;9.16;100.00;102943.31;5096737;28;20074;-82
2021/12/15 02:56:46;;;;;;;39.13;17.95;;;;;;;9.16;100.00;102940.66;5096744;28;20035;-84
2021/12/15 02:59:14;;;;;;;38.15;19.23;;;;;;;9.14;100.00;102938.03;5096421;28;20031;-82
2021/12/15 03:02:03;;;;;;;40.83;19.05;;;;;;;9.14;100.00;102943.31;5096430;28;20157;-82
2021/12/15 03:07:13;;;;;;;41.92;18.85;;;;;;;9.23;100.00;102941.50;5096617;28;20061;-82
2021/12/15 03:15:29;;;;;;;37.15;18.65;;;;;;;9.19;100.00;102951.19;5096589;28;20510;-83
2021/12/15 03:18:04;;;;;;;38.00;18.10;;;;;;;9.22;100.00;102945.03;5096317;28;20476;-80
2021/12/15 03:20:34;;;;;;;40.17;18.45;;;;;;;9.22;100.00;102942.38;5095817;28;20046;-82
2021/12/15 03:23:00;;;;;;;34.90;18.05;;;;;;;9.22;100.00;102951.22;5087097;28;20046;-83
2021/12/15 03:25:29;;;;;;;42.05;19.25;;;;;;;9.18;100.00;102949.44;5096246;28;20024;-83
2021/12/15 03:36:41;;;;;;;39.72;19.08;;;;;;;9.18;100.00;102949.44;5053530;28;20088;-82
2021/12/15 03:39:10;;;;;;;40.22;19.48;;;;;;;9.19;100.00;102953.84;5051211;28;20028;-82
2021/12/15 03:41:36;;;;;;;40.15;19.02;;;;;;;9.20;100.00;102949.47;5033709;28;20037;-82
2021/12/15 03:44:05;;;;;;;44.65;19.90;;;;;;;9.20;100.00;102957.38;5034434;28;20053;-81
2021/12/15 03:46:31;;;;;;;47.97;20.20;;;;;;;9.17;100.00;102953.00;5033521;28;20041;-82
2021/12/15 03:48:56;;;;;;;43.30;19.50;;;;;;;9.21;100.00;102962.66;5033423;28;20084;-81
2021/12/15 03:51:22;;;;;;;44.80;21.38;;;;;;;9.21;100.00;102957.38;5017898;28;20048;-78
2021/12/15 03:53:48;;;;;;;42.03;19.10;;;;;;;9.21;100.00;102951.19;5018839;28;20041;-82
2021/12/15 03:56:15;;;;;;;41.58;19.17;;;;;;;9.18;100.00;102958.28;5033140;28;20037;-81
2021/12/15 03:58:40;;;;;;;42.88;18.40;;;;;;;9.22;100.00;102950.31;5033130;28;20531;-81
2021/12/15 04:01:11;;;;;;;39.95;18.83;;;;;;;9.21;100.00;102949.44;5022628;28;20037;-83
2021/12/15 04:03:40;;;;;;;40.38;18.58;;;;;;;9.22;100.00;102952.94;5013426;28;20033;-83
2021/12/15 04:06:11;;;;;;;34.33;17.73;;;;;;;9.24;100.00;102960.00;5032816;28;20157;-81
2021/12/15 04:08:37;;;;;;;43.90;18.95;;;;;;;9.20;100.00;102963.53;5032626;28;20029;-83
2021/12/15 04:11:07;;;;;;;41.45;19.15;;;;;;;9.21;100.00;102959.13;5025652;28;20136;-83
2021/12/15 04:13:33;;;;;;;39.90;17.88;;;;;;;9.20;100.00;102960.91;5077458;28;20036;-78
2021/12/15 04:16:05;;;;;;;37.17;17.95;;;;;;;9.20;100.00;102966.19;5094950;28;20089;-82
2021/12/15 04:18:31;;;;;;;43.25;20.40;;;;;;;9.19;100.00;102964.41;5095382;28;20046;-82
2021/12/15 04:20:57;;;;;;;40.80;19.50;;;;;;;9.17;100.00;102963.56;5076556;28;20373;-83
2021/12/15 04:23:22;;;;;;;38.97;18.73;;;;;;;9.20;100.00;102970.59;5094953;28;20035;-83
2021/12/15 04:25:50;;;;;;;43.20;18.95;;;;;;;9.17;100.00;102969.72;5094488;28;20368;-82
2021/12/15 04:28:28;;;;;;;40.85;19.30;;;;;;;9.20;100.00;102970.59;5094964;28;20035;-81
2021/12/15 04:30:56;;;;;;;41.45;19.58;;;;;;;9.20;100.00;102965.31;5093611;28;20036;-82
2021/12/15 04:33:27;;;;;;;43.33;19.63;;;;;;;9.18;100.00;102968.84;5094896;28;20038;-83
2021/12/15 04:35:54;;;;;;;45.55;19.58;;;;;;;9.19;100.00;102964.41;5094663;28;20040;-82
2021/12/15 04:38:22;;;;;;;46.10;19.30;;;;;;;9.22;100.00;102967.06;5094766;28;20024;-82
2021/12/15 04:40:47;;;;;;;43.72;21.10;;;;;;;9.22;100.00;102971.47;5094316;28;20389;-80
2021/12/15 04:43:13;;;;;;;45.45;19.80;;;;;;;9.21;100.00;102972.34;5094445;28;20028;-83
2021/12/15 04:45:38;;;;;;;46.13;20.42;;;;;;;9.24;100.00;102967.91;5094735;28;20054;-83
2021/12/15 04:48:06;;;;;;;46.58;19.50;;;;;;;9.24;100.00;102981.13;5094206;28;20029;-83
2021/12/15 04:50:32;;;;;;;39.35;19.45;;;;;;;9.24;100.00;102973.22;5094827;28;20434;-82
2021/12/15 04:53:00;;;;;;;44.92;19.95;;;;;;;9.26;100.00;102981.13;5094226;28;20052;-81
2021/12/15 04:55:28;;;;;;;40.03;18.90;;;;;;;9.26;100.00;102976.72;5094396;28;20096;-81
2021/12/15 04:57:54;;;;;;;42.13;19.73;;;;;;;9.24;100.00;102977.63;5093979;28;20024;-82
2021/12/15 05:00:23;;;;;;;48.25;20.67;;;;;;;9.22;100.00;102976.75;5094705;28;20028;-79
2021/12/15 05:02:51;;;;;;;44.92;19.42;;;;;;;9.22;100.00;102977.63;5093897;28;20024;-81
2021/12/15 05:05:18;;;;;;;48.35;20.25;;;;;;;9.22;100.00;102980.28;5084525;28;20514;-82
2021/12/15 05:07:44;;;;;;;47.70;20.30;;;;;;;9.19;100.00;102977.63;5095198;28;20031;-80
2021/12/15 05:10:11;;;;;;;49.85;21.42;;;;;;;9.16;100.00;102980.31;5112262;28;20028;-77
2021/12/15 05:12:36;;;;;;;46.97;21.88;;;;;;;9.16;100.00;102986.47;5114645;28;20015;-82
2021/12/15 05:15:05;;;;;;;48.97;20.23;;;;;;;9.17;100.00;102982.06;5094226;28;20065;-81
2021/12/15 05:17:31;;;;;;;41.60;19.88;;;;;;;9.20;100.00;102987.34;5093933;28;20031;-82
2021/12/15 05:20:00;;;;;;;56.40;21.42;;;;;;;9.21;100.00;102975.88;5093743;28;20032;-81
2021/12/15 05:22:26;;;;;;;54.40;20.58;;;;;;;9.22;100.00;102968.81;5094081;28;20024;-81
2021/12/15 05:24:51;;;;;;;49.30;19.83;;;;;;;9.23;100.00;102978.50;5093844;28;20134;-81
2021/12/15 05:27:17;;;;;;;45.05;19.65;;;;;;;9.22;100.00;102982.94;5093768;28;20491;-81
2021/12/15 05:29:46;;;;;;;48.20;20.83;;;;;;;9.21;100.00;102983.81;5096940;28;20024;-80
2021/12/15 05:32:17;;;;;;;46.30;20.63;;;;;;;9.20;100.00;102982.03;5089703;28;20020;-81
2021/12/15 05:34:43;;;;;;;48.30;20.70;;;;;;;9.17;100.00;102980.28;5084246;28;20015;-80
2021/12/15 05:37:08;;;;;;;48.63;19.98;;;;;;;9.20;100.00;102982.03;5077857;28;20052;-82
2021/12/15 05:39:35;;;;;;;51.35;20.63;;;;;;;9.20;100.00;102983.81;5072973;28;20460;-81
2021/12/15 05:42:01;;;;;;;55.63;21.75;;;;;;;9.21;100.00;102991.75;5092456;28;20391;-82
2021/12/15 05:44:27;;;;;;;50.10;20.75;;;;;;;9.19;100.00;102985.56;5093088;28;20024;-82
2021/12/15 05:46:56;;;;;;;55.22;21.02;;;;;;;9.22;100.00;102989.97;5093406;28;20379;-82
2021/12/15 05:49:21;;;;;;;53.53;20.73;;;;;;;9.23;100.00;102981.16;5093477;28;20070;-80
2021/12/15 05:51:47;;;;;;;62.00;20.85;;;;;;;9.25;100.00;102993.47;5092868;28;20032;-79
2021/12/15 05:54:14;;;;;;;58.75;21.25;;;;;;;9.25;100.00;103001.41;5079879;28;20107;-82
2021/12/15 05:56:41;;;;;;;63.90;21.85;;;;;;;9.26;100.00;102994.34;5088364;28;20544;-79
2021/12/15 05:59:06;;;;;;;54.78;21.17;;;;;;;9.27;100.00;102997.00;5093259;28;20119;-83
2021/12/15 06:01:32;;;;;;;52.25;20.42;;;;;;;9.24;100.00;102998.78;5093092;28;20055;-81
2021/12/15 06:04:00;;;;;;;67.95;23.13;;;;;;;9.22;100.00;103009.38;5092474;28;20149;-83
2021/12/15 06:06:25;;;;;;;62.38;21.23;;;;;;;9.23;100.00;102997.00;5107990;28;20020;-83
2021/12/15 06:08:51;;;;;;;61.08;20.77;;;;;;;9.25;100.00;102998.75;5112299;28;20030;-83
2021/12/15 06:11:16;;;;;;;57.78;21.55;;;;;;;9.26;100.00;102992.59;5092139;28;20154;-83
2021/12/15 06:13:42;;;;;;;55.78;21.13;;;;;;;9.24;100.00;102997.00;5092758;28;20061;-83
2021/12/15 06:16:09;;;;;;;56.00;20.05;;;;;;;9.24;100.00;102996.13;5092738;28;20024;-83
2021/12/15 06:18:35;;;;;;;55.53;21.48;;;;;;;9.26;100.00;102999.63;5093292;28;20098;-84
2021/12/15 06:21:00;;;;;;;53.33;19.70;;;;;;;9.26;100.00;103007.56;5093188;28;20217;-83
2021/12/15 06:23:28;;;;;;;59.63;20.25;;;;;;;9.26;100.00;102997.88;5092559;28;20051;-82
2021/12/15 06:25:58;;;;;;;55.72;20.40;;;;;;;9.26;100.00;103007.56;5084148;28;20059;-83
2021/12/15 06:28:24;;;;;;;60.45;21.75;;;;;;;9.24;100.00;103006.72;5072490;28;20648;-84
2021/12/15 06:30:51;;;;;;;52.67;19.92;;;;;;;9.30;100.00;103010.19;5101703;28;20028;-84
2021/12/15 06:33:16;;;;;;;50.40;19.55;;;;;;;9.32;100.00;103008.44;5097025;28;20038;-83
2021/12/15 06:35:52;;;;;;;53.92;19.73;;;;;;;9.36;100.00;103009.31;5102356;28;20044;-84
2021/12/15 06:38:18;;;;;;;46.92;18.65;;;;;;;9.30;100.00;103022.56;5100808;28;20031;-82
2021/12/15 06:40:44;;;;;;;50.30;19.88;;;;;;;9.32;100.00;103012.81;5101870;28;20039;-81
2021/12/15 06:43:09;;;;;;;45.80;19.63;;;;;;;9.35;100.00;103013.69;5096065;28;20025;-83
2021/12/15 06:45:45;;;;;;;52.88;20.65;;;;;;;9.32;100.00;103018.13;5104088;28;20020;-82
2021/12/15 06:59:06;;;;;;;48.50;20.80;;;;;;;9.37;100.00;103032.19;5096201;28;20506;-84
2021/12/15 07:01:31;;;;;;;47.85;19.70;;;;;;;9.39;100.00;103033.06;5097728;28;20052;-84
2021/12/15 07:03:57;;;;;;;45.10;20.67;;;;;;;9.37;100.00;103026.91;5108946;28;20108;-80
2021/12/15 07:06:23;;;;;;;45.58;18.95;;;;;;;9.39;100.00;103046.31;5103018;28;20084;-84
2021/12/15 07:08:49;;;;;;;43.78;18.92;;;;;;;9.38;100.00;103041.88;5095059;28;20028;-83
2021/12/15 07:11:14;;;;;;;46.95;19.08;;;;;;;9.39;100.00;103040.16;5092028;28;20107;-80
2021/12/15 07:13:39;;;;;;;44.40;18.95;;;;;;;9.40;100.00;103042.78;5097661;28;20027;-85
2021/12/15 07:16:08;;;;;;;51.10;19.30;;;;;;;9.42;100.00;103040.97;5097234;28;20460;-80
2021/12/15 07:18:45;;;;;;;47.47;19.05;;;;;;;9.44;100.00;103049.81;5084113;28;20503;-83
2021/12/15 07:21:20;;;;;;;45.70;19.25;;;;;;;9.43;100.00;103047.16;5089865;28;20039;-85
2021/12/15 07:23:48;;;;;;;43.17;19.33;;;;;;;9.39;100.00;103037.50;5076364;28;20066;-76
2021/12/15 07:26:14;;;;;;;49.08;19.83;;;;;;;9.39;100.00;103043.66;5092299;28;20024;-84
2021/12/15 07:28:40;;;;;;;47.80;19.38;;;;;;;9.37;100.00;103050.69;5092839;28;20492;-84
2021/12/15 07:31:06;;;;;;;44.88;19.02;;;;;;;9.39;100.00;103048.94;5095222;28;20115;-82
2021/12/15 07:33:32;;;;;;;52.47;20.20;;;;;;;9.37;100.00;103053.34;5094749;28;20024;-84
2021/12/15 07:35:57;;;;;;;48.30;19.75;;;;;;;9.43;100.00;103047.16;5095169;28;20055;-84
2021/12/15 07:38:23;;;;;;;45.85;19.25;;;;;;;9.40;100.00;103052.44;5095147;28;20051;-82
2021/12/15 07:40:49;;;;;;;47.03;18.25;;;;;;;9.41;100.00;103047.19;5094711;28;20027;-79
2021/12/15 07:43:23;;;;;;;51.15;19.98;;;;;;;9.37;100.00;103048.06;5094543;28;20129;-81
2021/12/15 07:45:55;;;;;;;47.45;20.30;;;;;;;9.39;100.00;103050.72;5094473;28;20062;-82
2021/12/15 07:48:22;;;;;;;48.72;19.27;;;;;;;9.41;100.00;103056.88;5095439;28;20020;-76
2021/12/15 07:50:52;;;;;;;48.33;18.73;;;;;;;9.40;100.00;103044.53;5095963;28;20062;-80
2021/12/15 07:53:18;;;;;;;53.30;20.65;;;;;;;9.39;100.00;103056.88;5095569;28;20467;-74
2021/12/15 07:55:46;;;;;;;51.90;18.98;;;;;;;9.38;100.00;103060.41;5098651;28;20035;-77
2021/12/15 07:58:12;;;;;;;52.97;19.48;;;;;;;9.38;100.00;103068.34;5111538;28;20016;-84
2021/12/15 08:00:40;;;;;;;49.42;19.23;;;;;;;9.37;100.00;103063.91;5081039;28;20494;-80
2021/12/15 08:03:07;;;;;;;45.50;18.98;;;;;;;9.41;100.00;103056.88;5095362;28;20399;-84
2021/12/15 08:05:34;;;;;;;46.80;19.23;;;;;;;9.42;100.00;103059.50;5095689;28;20468;-83
2021/12/15 08:07:59;;;;;;;46.03;18.38;;;;;;;9.39;100.00;103069.22;5096466;28;20035;-84
2021/12/15 08:10:25;;;;;;;53.63;19.17;;;;;;;9.41;100.00;103059.50;5094141;28;20028;-84
2021/12/15 08:12:51;;;;;;;47.45;19.73;;;;;;;9.38;100.00;103062.19;5094510;28;20036;-84
2021/12/15 08:15:18;;;;;;;50.10;19.45;;;;;;;9.42;100.00;103061.28;5095103;28;20100;-82
2021/12/15 08:17:48;;;;;;;48.80;18.90;;;;;;;9.42;100.00;103064.78;5094690;28;20055;-80
2021/12/15 08:20:14;;;;;;;47.63;18.85;;;;;;;9.47;100.00;103076.22;5103444;28;20039;-78
2021/12/15 08:22:40;;;;;;;42.78;18.63;;;;;;;9.45;100.00;103071.81;5114497;28;20522;-82
2021/12/15 08:25:07;;;;;;;46.60;18.30;;;;;;;9.47;100.00;103076.22;5100793;28;20074;-83
2021/12/15 08:27:33;;;;;;;44.20;18.55;;;;;;;9.49;100.00;103065.66;5094325;28;20032;-83
2021/12/15 08:29:58;;;;;;;44.90;17.58;;;;;;;9.46;100.00;103063.91;5094971;28;20073;-84
2021/12/15 08:32:23;;;;;;;49.95;18.20;;;;;;;9.49;100.00;103065.66;5094644;28;20036;-82
2021/12/15 08:34:49;;;;;;;39.20;17.45;;;;;;;9.49;100.00;103081.53;5093983;28;20024;-83
2021/12/15 08:37:15;;;;;;;43.53;17.52;;;;;;;9.47;100.00;103086.81;5105953;28;20048;-83
2021/12/15 08:39:42;;;;;;;40.72;16.33;;;;;;;9.48;100.00;103082.41;5094804;28;20070;-82
2021/12/15 08:42:09;;;;;;;43.42;17.75;;;;;;;9.50;100.00;103088.56;5094905;28;20165;-80
2021/12/15 08:44:35;;;;;;;43.17;17.70;;;;;;;9.56;100.00;103079.72;5093850;28;20399;-84
2021/12/15 08:47:01;;;;;;;44.17;18.10;;;;;;;9.55;100.00;103072.69;5090148;28;20024;-79
2021/12/15 08:49:26;;;;;;;41.85;16.58;;;;;;;9.55;100.00;103078.84;5093619;28;20035;-83
2021/12/15 08:51:52;;;;;;;41.58;16.58;;;;;;;9.54;100.00;103085.03;5094646;28;20027;-83
2021/12/15 08:54:20;;;;;;;42.05;18.83;;;;;;;9.54;100.00;103089.44;5092962;28;20468;-78
2021/12/15 08:56:47;;;;;;;40.47;17.08;;;;;;;9.54;100.00;103090.31;5095188;28;20030;-74
2021/12/15 08:59:13;;;;;;;39.28;16.80;;;;;;;9.55;100.00;103091.19;5091119;28;20031;-82
2021/12/15 09:01:40;;;;;;;41.13;17.83;;;;;;;9.52;100.00;103102.66;5093371;28;20023;-82
2021/12/15 09:04:06;;;;;;;38.40;16.25;;;;;;;9.55;100.00;103100.00;5094122;28;20479;-83
2021/12/15 09:06:32;;;;;;;35.50;16.33;;;;;;;9.57;100.00;103100.88;5094313;28;20066;-83
2021/12/15 09:08:57;;;;;;;35.17;15.32;;;;;;;9.60;100.00;103087.63;5098883;28;20064;-82
2021/12/15 09:11:25;;;;;;;40.50;16.50;;;;;;;9.59;100.00;103100.88;5093599;28;20503;-76
2021/12/15 09:13:54;;;;;;;36.05;14.75;;;;;;;9.60;100.00;103102.63;5055464;28;20102;-83
2021/12/15 09:16:20;;;;;;;32.60;14.65;;;;;;;9.61;100.00;103107.91;5089747;28;20039;-79
2021/12/15 09:18:48;;;;;;;41.45;17.15;;;;;;;9.60;100.00;103118.50;5084584;28;20364;-76
2021/12/15 09:21:17;;;;;;;37.25;15.45;;;;;;;9.59;100.00;103111.44;5094466;28;20400;-80
2021/12/15 09:23:43;;;;;;;31.73;13.68;;;;;;;9.62;100.00;103111.44;5094050;28;20069;-80
2021/12/15 09:26:09;;;;;;;42.17;16.13;;;;;;;9.65;100.00;103116.72;5093599;28;20032;-81
2021/12/15 09:28:35;;;;;;;39.97;14.90;;;;;;;9.66;100.00;103111.41;5093137;28;20032;-76
2021/12/15 09:31:02;;;;;;;45.30;16.75;;;;;;;9.71;100.00;103121.13;5089211;28;20024;-81
2021/12/15 09:33:30;;;;;;;28.48;12.88;;;;;;;9.71;100.00;103115.81;5089328;28;20480;-81
2021/12/15 09:35:57;;;;;;;29.23;13.35;;;;;;;9.71;100.00;103126.41;5093136;28;20052;-82
2021/12/15 09:38:23;;;;;;;30.02;14.02;;;;;;;9.72;100.00;103121.09;5093518;28;20113;-82
2021/12/15 09:40:52;;;;;;;30.52;14.15;;;;;;;9.66;100.00;103129.94;5092633;28;20093;-77
2021/12/15 09:43:18;;;;;;;34.90;15.20;;;;;;;9.67;100.00;103128.19;5093671;28;20020;-77
2021/12/15 10:02:04;;;;;;;27.63;13.00;;;;;;;9.69;100.00;103163.44;5090792;28;20066;-81
2021/12/15 10:04:47;;;;;;;32.78;13.60;;;;;;;9.70;100.00;103156.38;5092717;28;20019;-77
2021/12/15 10:07:22;;;;;;;29.02;12.70;;;;;;;9.69;100.00;103158.13;5092777;28;20036;-81
2021/12/15 10:18:39;;;;;;;28.27;12.05;;;;;;;9.80;100.00;103160.75;5092575;28;20077;-80
2021/12/15 10:21:03;;;;;;;;;;;;;;;9.81;100.00;103151.94;5091491;28;20426;-80
2021/12/15 10:23:35;;;;;;;25.63;12.25;;;;;;;9.88;100.00;103161.59;5091662;28;20492;-79
2021/12/15 10:26:02;;;;;;;28.40;12.27;;;;;;;9.90;100.00;103157.19;5092046;28;20104;-80
2021/12/15 10:28:30;;;;;;;27.42;12.60;;;;;;;9.94;100.00;103163.34;5093213;28;20042;-79
2021/12/15 10:30:55;;;;;;;24.75;12.48;;;;;;;9.98;100.00;103157.13;5094477;28;20035;-82
2021/12/15 10:33:35;;;;;;;26.77;12.48;;;;;;;10.02;100.00;103152.72;5110443;28;20028;-81
2021/12/15 10:36:03;;;;;;;28.02;11.38;;;;;;;10.08;100.00;103155.34;5092324;28;20074;-79
2021/12/15 10:38:32;;;;;;;21.48;10.43;;;;;;;10.16;100.00;103153.50;5092920;28;20035;-81
2021/12/15 10:41:27;;;;;;;23.98;9.63;;;;;;;10.15;100.00;103162.34;5092071;28;20024;-82
2021/12/15 10:43:59;;;;;;;20.45;8.57;;;;;;;10.22;99.24;103166.72;5062811;28;20044;-81
2021/12/15 10:46:28;;;;;;;16.15;9.02;;;;;;;10.29;98.85;103165.81;5091759;28;20481;-82
2021/12/15 10:49:13;;;;;;;21.52;8.75;;;;;;;10.32;97.71;103156.97;5091719;28;20024;-75
2021/12/15 10:52:06;;;;;;;21.27;8.57;;;;;;;10.35;97.59;103158.72;5091493;28;20111;-81
2021/12/15 10:54:34;;;;;;;19.20;8.05;;;;;;;10.37;96.48;103160.50;5072365;28;20039;-82
2021/12/15 10:57:08;;;;;;;16.33;7.60;;;;;;;10.41;96.54;103151.63;5092128;28;20028;-81
2021/12/15 10:59:36;;;;;;;19.35;7.85;;;;;;;10.46;95.69;103157.75;5092400;28;20031;-83
2021/12/15 11:02:05;;;;;;;23.40;7.53;;;;;;;10.54;95.74;103170.06;5091633;28;20525;-79
2021/12/15 11:04:39;;;;;;;16.55;7.35;;;;;;;10.53;95.49;103169.19;5094777;28;20056;-79
2021/12/15 11:07:29;;;;;;;17.58;7.22;;;;;;;10.57;94.28;103155.03;5095881;28;20079;-80
2021/12/15 11:10:10;;;;;;;11.18;5.97;;;;;;;10.56;93.30;103149.75;5095459;28;20036;-81
2021/12/15 11:12:38;;;;;;;14.80;6.15;;;;;;;10.56;92.94;103152.41;5096531;28;20032;-81
2021/12/15 11:15:03;;;;;;;14.50;4.97;;;;;;;10.57;92.54;103152.38;5095947;28;20425;-82
2021/12/15 11:17:32;;;;;;;14.88;5.55;;;;;;;10.62;91.83;103155.00;5095216;28;20024;-81
2021/12/15 11:20:09;;;;;;;13.35;5.30;;;;;;;10.63;90.89;103160.28;5096058;28;20028;-80
2021/12/15 11:22:58;;;;;;;13.68;4.90;;;;;;;10.58;90.70;103167.38;5095939;28;20089;-80
2021/12/15 11:25:42;;;;;;;10.85;4.32;;;;;;;10.58;89.89;103155.91;5094982;28;20040;-81
2021/12/15 11:28:10;;;;;;;14.93;4.60;;;;;;;10.60;89.16;103155.00;5095773;28;20043;-82
2021/12/15 11:30:41;;;;;;;12.55;4.18;;;;;;;10.59;88.95;103149.75;5095469;28;20024;-83
2021/12/15 11:33:31;;;;;;;16.40;4.07;;;;;;;10.61;88.52;103158.53;5094629;28;20039;-82
2021/12/15 11:36:07;;;;;;;12.85;4.45;;;;;;;10.65;88.91;103152.31;5095557;28;20044;-76
2021/12/15 11:38:34;;;;;;;11.68;4.60;;;;;;;10.63;89.13;103159.41;5095279;28;20099;-79
2021/12/15 11:41:00;;;;;;;12.13;4.60;;;;;;;10.61;89.08;103167.38;5095272;28;20471;-77
2021/12/15 11:43:34;;;;;;;11.68;4.70;;;;;;;10.62;88.61;103165.59;5095034;28;20039;-80
2021/12/15 11:46:02;;;;;;;15.73;5.05;;;;;;;10.61;88.46;103156.78;5095899;28;20023;-81
2021/12/15 11:48:33;;;;;;;14.10;4.80;;;;;;;10.62;88.89;103158.50;5094907;28;20050;-81
2021/12/15 11:51:05;;;;;;;12.83;5.13;;;;;;;10.63;88.91;103162.06;5095661;28;20050;-80
2021/12/15 11:53:33;;;;;;;13.35;4.82;;;;;;;10.63;89.60;103164.72;5094954;28;20070;-79
2021/12/15 11:56:16;;;;;;;21.67;7.15;;;;;;;10.53;91.20;103158.59;5094867;28;20036;-79
2021/12/15 11:58:42;;;;;;;14.55;6.32;;;;;;;10.56;91.99;103161.25;5094998;28;20031;-79
2021/12/15 12:01:08;;;;;;;20.05;7.63;;;;;;;10.51;93.14;103149.75;5095073;28;20035;-83
2021/12/15 12:03:35;;;;;;;18.20;6.80;;;;;;;10.52;93.45;103155.97;5092233;28;20153;-82
2021/12/15 12:06:01;;;;;;;17.52;7.65;;;;;;;10.51;94.01;103164.78;5095258;28;20032;-84
2021/12/15 12:08:27;;;;;;;19.23;7.15;;;;;;;10.51;93.73;103159.50;5095152;28;20020;-82
2021/12/15 12:10:53;;;;;;;20.85;7.90;;;;;;;10.47;94.24;103167.47;5082446;28;20047;-82
2021/12/15 12:13:25;;;;;;;22.02;7.90;;;;;;;10.45;94.11;103158.66;5074979;28;20036;-79
2021/12/15 12:15:57;;;;;;;18.35;7.60;;;;;;;10.46;94.31;103151.56;5094071;28;20024;-82
2021/12/15 12:18:26;;;;;;;18.65;7.63;;;;;;;10.43;93.73;103152.47;5094569;28;20032;-81
2021/12/15 12:20:54;;;;;;;18.90;7.75;;;;;;;10.43;94.01;103139.22;5076565;28;20044;-82
2021/12/15 12:23:24;;;;;;;18.30;8.02;;;;;;;10.42;94.71;103152.50;5087530;28;20028;-79
2021/12/15 12:25:53;;;;;;;28.30;10.25;;;;;;;10.42;94.66;103144.53;5093587;28;20069;-81
2021/12/15 12:28:26;;;;;;;25.85;8.98;;;;;;;10.41;94.66;103137.47;5093394;28;20027;-78